Paxton, Massachusetts
Current Conditions -  °F | °C
As of 7:54 PM on Monday 20 Oct 2014 (Local Time) from KORH Reporting Station
Clear Clear  
Wind Chill: 40°   Ceiling: Unl
Heat Index: 44°   Visibility: 10mi
Dew Point: 36°   Wind: 8mph
Humidity: 73%   Direction: 230°SW
Pressure: 29.98"   Gusts: NA
Location:  42.31°N, 71.93°W
Report Text: KORH 202354Z 23007KT 10SM CLR 07/02 A2998 RMK AO2 SLP161 T00670022 10117 20067 53004
Loading
Personal Weather Stations






























Interactive Weather Map
Tropical Storm Tracking
New forecast layout! Learn more

10-Day Weather Forecast

Advertisements
Track Severe Weather on mobile